createdAt,value
2023-05-10T00:00:10.404Z,3.60
2023-05-10T00:19:05.739Z,2.80
2023-05-10T00:20:06.732Z,3.00
2023-05-10T00:21:06.708Z,2.90
2023-05-10T00:22:06.702Z,3.20
2023-05-10T00:23:06.705Z,2.90
2023-05-10T00:24:06.674Z,3.10
2023-05-10T00:25:06.658Z,2.90
2023-05-10T00:26:27.644Z,3.00
2023-05-10T00:27:27.671Z,3.40
2023-05-10T00:28:27.626Z,3.20
2023-05-10T00:29:27.617Z,3.20
2023-05-10T00:30:06.624Z,3.00
2023-05-10T00:31:06.592Z,2.90
2023-05-10T00:32:27.620Z,2.90
2023-05-10T00:33:27.571Z,3.40
2023-05-10T00:34:27.559Z,3.10
2023-05-10T00:35:06.551Z,3.20
2023-05-10T00:36:06.541Z,2.90
2023-05-10T00:37:27.543Z,3.10
2023-05-10T00:38:27.516Z,2.90
2023-05-10T00:39:27.508Z,3.10
2023-05-10T00:40:06.493Z,2.90
2023-05-10T00:41:06.495Z,3.30
2023-05-10T00:42:27.494Z,3.20
2023-05-10T00:43:27.460Z,3.10
2023-05-10T00:44:27.483Z,3.10
2023-05-10T00:45:07.019Z,3.10
2023-05-10T00:46:06.447Z,3.10
2023-05-10T00:47:27.450Z,3.40
2023-05-10T00:48:27.400Z,3.30
2023-05-10T00:49:27.401Z,2.90
2023-05-10T00:50:06.382Z,3.30
2023-05-10T00:51:06.375Z,2.90
2023-05-10T00:52:27.368Z,3.20
2023-05-10T00:53:27.355Z,3.30
2023-05-10T00:54:06.407Z,3.00
2023-05-10T00:55:06.327Z,3.50
2023-05-10T00:56:06.316Z,3.30
2023-05-10T00:57:06.299Z,3.50
2023-05-10T00:58:27.321Z,3.50
2023-05-10T00:59:06.279Z,3.50
2023-05-10T01:00:06.279Z,3.50
2023-05-10T01:01:06.276Z,3.20
2023-05-10T01:02:06.304Z,3.30
2023-05-10T01:03:27.275Z,3.40
2023-05-10T06:19:19.948Z,4.30
2023-05-10T06:20:20.927Z,4.50
2023-05-10T06:21:20.926Z,4.40
2023-05-10T06:22:20.911Z,4.40
2023-05-10T06:23:20.914Z,4.40
2023-05-10T06:24:20.931Z,4.50
2023-05-10T06:25:20.887Z,4.80
2023-05-10T06:26:20.869Z,4.60
2023-05-10T06:27:20.858Z,4.40
2023-05-10T06:28:20.859Z,4.50
2023-05-10T06:29:20.868Z,4.00
2023-05-10T06:30:20.833Z,4.40
2023-05-10T06:31:20.843Z,4.50
2023-05-10T06:32:20.819Z,4.50
2023-05-10T06:33:20.809Z,4.60
2023-05-10T06:34:20.798Z,4.20
2023-05-10T06:35:20.770Z,4.20
2023-05-10T06:36:20.756Z,4.20
2023-05-10T06:37:20.775Z,3.90
2023-05-10T06:38:20.752Z,4.10
2023-05-10T06:39:20.747Z,4.50
2023-05-10T06:40:20.710Z,4.20
2023-05-10T06:41:21.619Z,4.40
2023-05-10T06:42:20.694Z,4.20
2023-05-10T06:43:20.703Z,4.10
2023-05-10T06:44:20.709Z,4.20
2023-05-10T06:45:20.831Z,4.30
2023-05-10T06:46:20.696Z,4.40
2023-05-10T06:47:20.648Z,4.40
2023-05-10T06:48:20.655Z,4.60
2023-05-10T06:49:20.627Z,4.50
2023-05-10T06:50:20.616Z,4.50
2023-05-10T06:51:20.608Z,4.30
2023-05-10T06:52:20.580Z,4.20
2023-05-10T06:53:20.581Z,4.50
2023-05-10T06:54:20.581Z,4.60
2023-05-10T06:55:20.550Z,4.60
2023-05-10T06:56:20.583Z,4.50
2023-05-10T06:57:31.265Z,4.60
2023-05-10T06:58:20.540Z,4.00
2023-05-10T06:59:20.570Z,4.40
2023-05-10T07:00:20.787Z,4.20
2023-05-10T07:01:20.626Z,4.60
2023-05-10T07:02:20.552Z,4.50
2023-05-10T07:03:20.540Z,4.20
2023-05-10T07:04:20.530Z,4.40
2023-05-10T07:05:20.744Z,4.20
2023-05-10T07:06:32.235Z,4.80
2023-05-10T07:07:20.445Z,4.50
2023-05-10T07:08:20.416Z,4.20
2023-05-10T07:09:20.435Z,4.90
2023-05-10T07:10:20.419Z,4.60
2023-05-10T07:11:20.398Z,4.50
2023-05-10T07:12:20.453Z,4.70
2023-05-10T07:13:20.475Z,4.30
2023-05-10T07:14:20.372Z,4.20
2023-05-10T07:15:20.389Z,4.40
2023-05-10T07:16:20.363Z,4.60
2023-05-10T07:17:20.335Z,4.40
2023-05-10T07:18:20.320Z,4.80
2023-05-10T07:19:20.304Z,4.50
2023-05-10T07:20:20.286Z,4.80
2023-05-10T07:21:20.355Z,4.50
2023-05-10T07:22:20.292Z,4.20
2023-05-10T07:23:20.259Z,4.30
2023-05-10T07:24:20.287Z,4.60
2023-05-10T07:25:20.245Z,4.50
2023-05-10T07:26:20.221Z,4.60
2023-05-10T07:27:20.231Z,4.90
2023-05-10T07:28:20.215Z,4.40
2023-05-10T07:29:20.234Z,4.50
2023-05-10T07:30:20.218Z,4.40
2023-05-10T07:31:20.172Z,4.20
2023-05-10T07:32:20.234Z,4.70
2023-05-10T07:33:20.203Z,4.40
2023-05-10T07:34:20.153Z,4.20
2023-05-10T07:35:20.114Z,4.00
2023-05-10T07:36:20.128Z,4.10
2023-05-10T07:37:20.098Z,4.70
2023-05-10T07:38:20.109Z,4.20
2023-05-10T07:39:26.607Z,4.70
2023-05-10T07:40:20.122Z,4.10
2023-05-10T07:41:20.058Z,4.20
2023-05-10T07:42:20.065Z,4.70
2023-05-10T07:43:20.048Z,4.70
2023-05-10T07:44:20.053Z,4.50
2023-05-10T07:45:20.004Z,4.10
2023-05-10T07:46:20.021Z,4.60
2023-05-10T07:47:20.014Z,4.20
2023-05-10T07:48:19.979Z,4.20
2023-05-10T07:49:20.010Z,4.80
2023-05-10T07:50:19.953Z,5.10
2023-05-10T07:51:20.000Z,4.80
2023-05-10T07:52:22.432Z,4.70
2023-05-10T07:53:19.940Z,4.60
2023-05-10T07:54:19.926Z,4.70
2023-05-10T07:55:19.910Z,4.70
2023-05-10T07:56:19.899Z,5.20
2023-05-10T07:57:19.873Z,4.80
2023-05-10T07:58:19.870Z,5.10
2023-05-10T07:59:19.876Z,4.50
2023-05-10T08:00:19.860Z,4.70
2023-05-10T08:01:19.852Z,5.20
2023-05-10T08:02:19.896Z,5.10
2023-05-10T08:03:20.021Z,5.20
2023-05-10T08:04:19.891Z,4.90
2023-05-10T08:05:19.922Z,5.40
2023-05-10T08:06:19.780Z,4.90
2023-05-10T08:07:19.794Z,5.00
2023-05-10T08:08:19.783Z,4.90
2023-05-10T08:09:19.773Z,5.00
2023-05-10T08:10:19.770Z,5.10
2023-05-10T08:11:19.770Z,4.90
2023-05-10T08:12:19.717Z,4.80
2023-05-10T08:13:19.711Z,5.00
2023-05-10T08:14:19.721Z,5.00
2023-05-10T08:15:19.855Z,5.20
2023-05-10T08:16:19.745Z,5.10
2023-05-10T08:17:20.275Z,5.20
2023-05-10T08:18:21.896Z,5.10
2023-05-10T08:19:19.661Z,5.30
2023-05-10T08:20:19.659Z,4.90
2023-05-10T08:21:19.622Z,4.90
2023-05-10T08:22:19.616Z,5.10
2023-05-10T08:23:19.674Z,4.90
2023-05-10T08:24:19.615Z,5.40
2023-05-10T08:25:19.847Z,5.20
2023-05-10T08:26:19.576Z,5.10
2023-05-10T08:27:19.548Z,5.30
2023-05-10T08:28:19.534Z,5.00
2023-05-10T08:29:19.597Z,5.00
2023-05-10T08:30:19.537Z,5.30
2023-05-10T08:31:19.604Z,5.40
2023-05-10T08:32:19.598Z,5.40
2023-05-10T08:33:19.552Z,5.50
2023-05-10T08:34:19.552Z,5.10
2023-05-10T08:35:19.477Z,5.20
2023-05-10T08:36:19.529Z,4.70
2023-05-10T08:37:19.455Z,5.10
2023-05-10T08:38:19.446Z,5.00
2023-05-10T08:39:29.337Z,5.00
2023-05-10T08:40:19.413Z,5.20
2023-05-10T08:41:19.437Z,5.20
2023-05-10T08:42:19.394Z,5.60
2023-05-10T08:43:19.377Z,5.30
2023-05-10T08:44:19.421Z,5.30
2023-05-10T08:45:19.689Z,5.00
2023-05-10T08:46:19.417Z,5.00
2023-05-10T08:47:19.363Z,5.10
2023-05-10T08:48:19.335Z,5.40
2023-05-10T08:49:19.323Z,5.20
2023-05-10T08:50:19.310Z,5.60
2023-05-10T08:51:19.291Z,5.50
2023-05-10T08:52:19.354Z,6.00
2023-05-10T08:53:19.291Z,5.60
2023-05-10T08:54:19.292Z,5.00
2023-05-10T08:55:19.392Z,5.20
2023-05-10T08:56:19.235Z,4.80
2023-05-10T08:57:19.229Z,5.30
2023-05-10T08:58:19.211Z,5.60
2023-05-10T08:59:19.243Z,5.70
2023-05-10T09:00:19.206Z,5.30
2023-05-10T09:01:19.282Z,5.60
2023-05-10T09:02:19.177Z,6.00
2023-05-10T09:03:19.194Z,5.30
2023-05-10T09:04:19.250Z,5.80
2023-05-10T09:05:19.799Z,5.50
2023-05-10T09:06:19.157Z,5.30
2023-05-10T09:07:19.108Z,4.70
2023-05-10T09:08:19.109Z,5.70
2023-05-10T09:09:19.096Z,6.00
2023-05-10T09:10:19.128Z,6.10
2023-05-10T09:11:19.083Z,5.40
2023-05-10T09:12:19.058Z,5.80
2023-05-10T09:13:19.077Z,5.30
2023-05-10T09:14:19.058Z,6.10
2023-05-10T09:15:19.220Z,6.10
2023-05-10T09:16:22.015Z,6.00
2023-05-10T09:17:19.044Z,5.80
2023-05-10T09:18:19.088Z,6.10
2023-05-10T09:19:19.003Z,6.40
2023-05-10T09:20:18.994Z,6.60
2023-05-10T09:21:18.969Z,6.40
2023-05-10T09:22:18.951Z,5.60
2023-05-10T09:23:18.945Z,6.00
2023-05-10T09:24:18.958Z,5.50
2023-05-10T09:25:19.270Z,6.40
2023-05-10T09:26:18.903Z,6.50
2023-05-10T09:27:18.919Z,6.00
2023-05-10T09:28:18.894Z,6.00
2023-05-10T09:29:18.906Z,6.20
2023-05-10T09:30:18.948Z,6.20
2023-05-10T09:31:18.955Z,6.50
2023-05-10T09:32:18.845Z,6.20
2023-05-10T09:33:18.885Z,6.10
2023-05-10T09:34:18.855Z,6.50
2023-05-10T09:35:19.054Z,6.50
2023-05-10T09:36:18.797Z,6.40
2023-05-10T09:37:18.809Z,6.80
2023-05-10T09:38:18.800Z,6.50
2023-05-10T09:39:18.791Z,6.50
2023-05-10T09:40:18.820Z,6.80
2023-05-10T09:41:18.768Z,6.60
2023-05-10T09:42:18.737Z,7.40
2023-05-10T09:43:18.729Z,6.50
2023-05-10T09:44:18.763Z,6.20
2023-05-10T09:45:18.902Z,7.10
2023-05-10T09:46:18.778Z,6.70
2023-05-10T09:47:18.700Z,7.10
2023-05-10T09:48:18.672Z,6.50
2023-05-10T09:49:18.670Z,7.50
2023-05-10T09:50:18.727Z,6.80
2023-05-10T09:51:18.674Z,7.40
2023-05-10T09:52:18.633Z,6.90
2023-05-10T09:53:18.647Z,7.80
2023-05-10T09:54:18.643Z,7.30
2023-05-10T09:55:18.729Z,7.20
2023-05-10T09:56:18.601Z,7.50
2023-05-10T09:57:18.607Z,6.70
2023-05-10T09:58:18.579Z,7.60
2023-05-10T09:59:18.561Z,7.40
2023-05-10T10:00:18.584Z,7.30
2023-05-10T10:01:18.550Z,7.20
2023-05-10T10:02:18.530Z,7.80
2023-05-10T10:03:18.530Z,6.70
2023-05-10T10:04:18.523Z,7.90
2023-05-10T10:05:18.763Z,7.50
2023-05-10T10:06:29.067Z,7.00
2023-05-10T10:07:18.471Z,7.30
2023-05-10T10:08:18.503Z,7.40
2023-05-10T10:09:18.451Z,7.90
2023-05-10T10:10:18.484Z,8.00
2023-05-10T10:11:18.434Z,7.70
2023-05-10T10:12:18.442Z,7.90
2023-05-10T10:13:18.458Z,8.00
2023-05-10T10:14:18.394Z,8.40
2023-05-10T10:15:18.684Z,7.80
2023-05-10T10:16:18.442Z,8.10
2023-05-10T10:17:18.358Z,8.30
2023-05-10T10:18:18.383Z,7.80
2023-05-10T10:19:18.340Z,7.70
2023-05-10T10:20:18.634Z,7.70
2023-05-10T10:21:18.324Z,7.60
2023-05-10T10:22:18.331Z,7.30
2023-05-10T10:23:18.312Z,7.90
2023-05-10T10:24:18.290Z,8.20
2023-05-10T10:25:18.745Z,7.50
2023-05-10T10:26:18.295Z,8.00
2023-05-10T10:27:18.268Z,8.20
2023-05-10T10:28:18.263Z,7.50
2023-05-10T10:29:18.227Z,8.20
2023-05-10T10:30:18.256Z,8.40
2023-05-10T10:31:18.259Z,8.10
2023-05-10T10:32:18.193Z,8.70
2023-05-10T10:33:27.749Z,8.70
2023-05-10T10:34:18.195Z,8.40
2023-05-10T10:35:18.420Z,7.60
2023-05-10T10:36:18.195Z,7.80
2023-05-10T10:37:18.178Z,8.90
2023-05-10T10:38:18.156Z,8.00
2023-05-10T10:39:18.140Z,8.10
2023-05-10T10:40:18.157Z,7.30
2023-05-10T10:41:18.117Z,8.20
2023-05-10T10:42:18.111Z,7.90
2023-05-10T10:43:18.092Z,8.00
2023-05-10T10:44:18.070Z,7.80
2023-05-10T10:45:18.521Z,8.00
2023-05-10T10:46:18.252Z,8.00
2023-05-10T10:47:18.039Z,8.10
2023-05-10T10:48:18.044Z,8.40
2023-05-10T10:49:18.038Z,7.70
2023-05-10T10:50:18.022Z,7.80
2023-05-10T10:51:18.014Z,8.10
2023-05-10T10:52:18.034Z,7.50
2023-05-10T10:53:18.035Z,8.10
2023-05-10T10:54:17.993Z,7.40
2023-05-10T10:55:18.177Z,7.80
2023-05-10T10:56:18.017Z,8.90
2023-05-10T10:57:17.947Z,8.30
2023-05-10T10:58:17.940Z,7.50
2023-05-10T10:59:17.905Z,8.00
2023-05-10T11:00:17.921Z,7.80
2023-05-10T11:01:17.941Z,7.90
2023-05-10T11:02:17.901Z,8.20
2023-05-10T11:03:17.908Z,8.00
2023-05-10T11:04:17.881Z,7.40
2023-05-10T11:05:18.057Z,8.60
2023-05-10T11:06:17.848Z,8.40
2023-05-10T11:07:17.835Z,7.70
2023-05-10T11:08:17.891Z,7.50
2023-05-10T11:09:17.821Z,8.10
2023-05-10T11:10:17.821Z,8.70
2023-05-10T11:11:17.784Z,7.90
2023-05-10T11:12:17.788Z,7.80
2023-05-10T11:13:17.786Z,8.10
2023-05-10T11:14:17.768Z,8.10
2023-05-10T11:15:18.025Z,8.10
2023-05-10T11:16:17.788Z,8.00
2023-05-10T11:17:17.716Z,7.80
2023-05-10T11:18:17.789Z,8.10
2023-05-10T11:19:17.691Z,8.00
2023-05-10T11:20:17.947Z,8.30
2023-05-10T11:21:17.742Z,8.30
2023-05-10T11:22:17.676Z,8.00
2023-05-10T11:23:17.665Z,8.80
2023-05-10T11:24:17.649Z,8.00
2023-05-10T11:25:17.655Z,7.30
2023-05-10T11:26:17.624Z,8.30
2023-05-10T11:27:17.608Z,8.60
2023-05-10T11:28:17.610Z,7.90
2023-05-10T11:29:17.605Z,8.00
2023-05-10T11:30:17.869Z,8.60
2023-05-10T11:31:17.622Z,8.20
2023-05-10T11:32:17.594Z,7.70
2023-05-10T11:33:17.547Z,7.70
2023-05-10T11:34:17.538Z,8.20
2023-05-10T11:35:17.543Z,7.90
2023-05-10T11:36:17.527Z,7.40
2023-05-10T11:37:17.500Z,8.00
2023-05-10T11:38:17.520Z,7.00
2023-05-10T11:39:17.499Z,7.70
2023-05-10T11:40:17.632Z,7.60
2023-05-10T11:41:17.483Z,7.20
2023-05-10T11:42:17.467Z,7.10
2023-05-10T11:43:17.451Z,7.20
2023-05-10T11:44:17.439Z,7.00
2023-05-10T11:45:17.450Z,6.90
2023-05-10T11:46:17.439Z,6.70
2023-05-10T11:47:17.403Z,6.50
2023-05-10T11:48:17.382Z,6.90
2023-05-10T11:49:17.386Z,6.80
2023-05-10T11:50:17.578Z,6.70
2023-05-10T11:51:17.354Z,6.40
2023-05-10T11:52:17.356Z,6.50
2023-05-10T11:53:17.341Z,6.50
2023-05-10T11:54:17.348Z,6.30
2023-05-10T11:55:17.341Z,6.40
2023-05-10T11:56:17.327Z,6.10
2023-05-10T11:57:17.311Z,6.50
2023-05-10T11:58:17.333Z,6.50
2023-05-10T11:59:17.265Z,6.70
2023-05-10T12:00:17.640Z,6.30
2023-05-10T12:01:17.267Z,6.20
2023-05-10T12:02:17.263Z,5.50
2023-05-10T12:03:17.273Z,6.40
2023-05-10T12:04:17.567Z,6.20
2023-05-10T12:05:17.228Z,7.20
2023-05-10T12:06:17.206Z,6.10
2023-05-10T12:07:17.185Z,6.80
2023-05-10T12:08:17.184Z,6.10
2023-05-10T12:09:19.183Z,6.30
2023-05-10T12:10:17.326Z,6.40
2023-05-10T12:11:17.152Z,5.80
2023-05-10T12:12:17.140Z,6.20
2023-05-10T12:13:17.111Z,6.40
2023-05-10T12:14:17.098Z,6.50
2023-05-10T12:15:17.138Z,6.30
2023-05-10T12:16:17.115Z,6.10
2023-05-10T12:17:17.084Z,5.80
2023-05-10T12:18:17.190Z,5.60
2023-05-10T12:20:17.191Z,6.50
2023-05-10T12:21:17.789Z,5.90
2023-05-10T12:22:17.775Z,5.60
2023-05-10T12:23:17.767Z,5.70
2023-05-10T12:24:17.753Z,5.90
2023-05-10T12:25:17.759Z,6.60
2023-05-10T12:26:17.734Z,6.10
2023-05-10T12:27:17.714Z,5.60
2023-05-10T12:28:17.703Z,5.70
2023-05-10T12:29:17.823Z,6.00
2023-05-10T12:30:17.831Z,6.50
2023-05-10T12:31:17.686Z,5.90
2023-05-10T12:32:17.723Z,6.00
2023-05-10T12:33:17.652Z,5.80
2023-05-10T12:34:17.634Z,6.40
2023-05-10T12:35:17.636Z,6.50
2023-05-10T12:36:17.638Z,6.60
2023-05-10T12:37:17.602Z,6.30
2023-05-10T12:38:17.591Z,6.40
2023-05-10T12:39:17.583Z,6.10
2023-05-10T12:40:18.537Z,7.10
2023-05-10T12:41:17.679Z,6.80
2023-05-10T12:42:17.562Z,6.70
2023-05-10T12:43:17.542Z,6.70
2023-05-10T12:44:17.530Z,6.20
2023-05-10T12:45:17.536Z,6.60
2023-05-10T12:46:17.553Z,6.30
2023-05-10T12:47:17.496Z,6.50
2023-05-10T12:48:17.484Z,6.60
2023-05-10T12:49:17.474Z,6.70
2023-05-10T12:50:17.643Z,7.40
2023-05-10T12:51:17.450Z,6.10
2023-05-10T12:52:17.440Z,6.30
2023-05-10T12:53:17.419Z,6.60
2023-05-10T12:54:17.422Z,6.80
2023-05-10T12:55:17.424Z,7.20
2023-05-10T12:56:17.441Z,6.40
2023-05-10T12:57:17.392Z,6.10
2023-05-10T12:58:32.004Z,6.50
2023-05-10T12:59:17.384Z,6.60
2023-05-10T13:00:17.676Z,6.50
2023-05-10T13:01:17.368Z,6.40
2023-05-10T13:02:17.329Z,5.50
2023-05-10T13:03:17.321Z,6.40
2023-05-10T13:04:17.336Z,6.70
2023-05-10T13:05:17.349Z,6.90
2023-05-10T13:06:17.283Z,6.30
2023-05-10T13:07:17.277Z,6.50
2023-05-10T13:08:17.257Z,6.10
2023-05-10T13:09:17.240Z,6.50
2023-05-10T13:10:17.508Z,6.50
2023-05-10T13:11:17.237Z,6.50
2023-05-10T13:12:17.210Z,6.90
2023-05-10T13:13:17.205Z,5.70
2023-05-10T13:14:17.204Z,6.90
2023-05-10T13:15:17.192Z,6.40
2023-05-10T13:16:17.209Z,6.30
2023-05-10T13:17:17.196Z,6.40
2023-05-10T13:18:17.212Z,6.40
2023-05-10T13:19:17.244Z,6.20
2023-05-10T13:20:17.382Z,6.40
2023-05-10T13:21:17.113Z,6.50
2023-05-10T13:22:22.947Z,6.50
2023-05-10T13:23:17.114Z,7.20
2023-05-10T13:24:17.093Z,7.00
2023-05-10T13:25:17.092Z,7.10
2023-05-10T13:26:17.063Z,6.60
2023-05-10T13:27:17.043Z,6.80
2023-05-10T13:28:17.038Z,6.80
2023-05-10T13:29:17.024Z,6.80
2023-05-10T13:30:17.280Z,7.00
2023-05-10T13:31:17.072Z,6.30
2023-05-10T13:32:16.995Z,7.30
2023-05-10T13:33:17.004Z,7.10
2023-05-10T13:34:16.967Z,6.70
2023-05-10T13:35:17.009Z,6.60
2023-05-10T13:36:16.973Z,6.60
2023-05-10T13:37:16.963Z,6.90
2023-05-10T13:38:16.928Z,7.10
2023-05-10T13:39:16.922Z,6.70
2023-05-10T13:40:17.302Z,6.90
2023-05-10T13:41:16.894Z,7.40
2023-05-10T13:42:16.900Z,6.80
2023-05-10T13:43:16.877Z,7.30
2023-05-10T13:44:16.857Z,7.40
2023-05-10T13:45:17.047Z,6.60
2023-05-10T13:46:16.927Z,7.10
2023-05-10T13:47:16.855Z,6.80
2023-05-10T13:48:16.815Z,6.50
2023-05-10T13:49:16.831Z,6.70
2023-05-10T13:50:16.810Z,6.40
2023-05-10T13:51:16.779Z,5.70
2023-05-10T13:52:16.770Z,6.90
2023-05-10T13:53:16.798Z,5.60
2023-05-10T13:54:16.748Z,6.10
2023-05-10T13:55:17.090Z,6.30
2023-05-10T13:56:16.747Z,6.10
2023-05-10T13:57:16.722Z,5.60
2023-05-10T13:58:16.717Z,6.60
2023-05-10T13:59:16.709Z,6.50
2023-05-10T14:00:16.703Z,5.40
2023-05-10T14:01:16.709Z,6.00
2023-05-10T14:02:16.676Z,5.70
2023-05-10T14:03:16.729Z,6.70
2023-05-10T14:04:16.644Z,6.80
2023-05-10T14:05:17.358Z,6.20
2023-05-10T14:06:16.635Z,5.80
2023-05-10T14:07:16.603Z,7.30
2023-05-10T14:08:16.606Z,5.90
2023-05-10T14:09:16.598Z,6.00
2023-05-10T14:10:16.602Z,6.00
2023-05-10T14:11:16.578Z,5.80
2023-05-10T14:12:16.556Z,6.10
2023-05-10T14:13:16.551Z,5.80
2023-05-10T14:14:16.546Z,5.40
2023-05-10T14:15:16.754Z,5.60
2023-05-10T14:16:16.529Z,6.10
2023-05-10T14:17:16.505Z,5.70
2023-05-10T14:18:16.541Z,5.40
2023-05-10T14:19:16.483Z,5.20
2023-05-10T14:20:16.478Z,5.40
2023-05-10T14:21:16.455Z,5.60
2023-05-10T14:22:16.456Z,5.40
2023-05-10T14:23:16.437Z,5.20
2023-05-10T14:24:16.424Z,5.40
2023-05-10T14:25:16.674Z,5.20
2023-05-10T14:26:16.404Z,5.30
2023-05-10T14:27:16.385Z,5.70
2023-05-10T14:28:16.400Z,5.20
2023-05-10T14:29:16.387Z,4.90
2023-05-10T14:30:16.374Z,4.90
2023-05-10T14:31:16.359Z,4.80
2023-05-10T14:32:16.455Z,5.00
2023-05-10T14:33:16.319Z,4.60
2023-05-10T14:34:16.312Z,5.10
2023-05-10T14:35:19.142Z,5.20
2023-05-10T14:36:16.286Z,4.90
2023-05-10T14:37:16.287Z,5.10
2023-05-10T14:38:16.294Z,4.80
2023-05-10T14:39:16.256Z,4.90
2023-05-10T14:40:16.276Z,4.40
2023-05-10T14:41:16.239Z,5.20
2023-05-10T14:42:16.237Z,4.70
2023-05-10T14:43:16.225Z,4.70
2023-05-10T14:44:16.199Z,4.70
2023-05-10T14:45:16.485Z,5.10
2023-05-10T14:46:16.210Z,4.50
2023-05-10T14:47:16.169Z,4.80
2023-05-10T14:48:16.163Z,4.70
2023-05-10T14:49:16.147Z,4.20
2023-05-10T14:50:31.819Z,4.70
2023-05-10T14:51:16.138Z,4.30
2023-05-10T14:52:16.105Z,4.80
2023-05-10T14:53:16.096Z,4.40
2023-05-10T14:54:16.086Z,4.00
2023-05-10T14:55:16.344Z,4.70
2023-05-10T14:56:16.079Z,4.50
2023-05-10T14:57:16.052Z,4.30
2023-05-10T14:58:16.046Z,3.90
2023-05-10T14:59:16.029Z,3.90
2023-05-10T15:00:16.220Z,4.40
2023-05-10T15:01:16.040Z,4.30
2023-05-10T15:02:16.049Z,3.90
2023-05-10T15:03:16.060Z,4.10
2023-05-10T15:04:15.969Z,4.00
2023-05-10T15:05:16.270Z,4.30
2023-05-10T15:06:16.124Z,3.90
2023-05-10T15:07:15.942Z,4.00
2023-05-10T15:08:15.946Z,4.20
2023-05-10T15:09:15.923Z,4.00
2023-05-10T15:10:15.897Z,4.00
2023-05-10T15:11:15.916Z,4.40
2023-05-10T15:12:15.887Z,4.10
2023-05-10T15:13:15.880Z,3.60
2023-05-10T15:14:15.945Z,3.50
2023-05-10T15:15:16.100Z,4.00
2023-05-10T15:16:15.888Z,3.90
2023-05-10T15:17:15.825Z,3.90
2023-05-10T15:18:15.856Z,3.90
2023-05-10T15:19:15.806Z,5.10
2023-05-10T15:20:15.796Z,4.50
2023-05-10T15:21:15.802Z,5.00
2023-05-10T15:22:15.787Z,5.50
2023-05-10T15:23:15.768Z,5.40
2023-05-10T15:24:15.765Z,5.10
2023-05-10T15:25:15.957Z,5.70
2023-05-10T15:26:15.752Z,6.00
2023-05-10T15:27:15.727Z,5.70
2023-05-10T15:28:15.706Z,5.30
2023-05-10T15:29:15.706Z,5.70
2023-05-10T15:30:15.695Z,6.10
2023-05-10T15:31:15.730Z,6.30
2023-05-10T15:32:15.667Z,6.50
2023-05-10T15:33:15.656Z,6.40
2023-05-10T15:34:15.638Z,5.90
2023-05-10T15:35:15.840Z,6.40
2023-05-10T15:36:15.643Z,6.50
2023-05-10T15:37:15.609Z,6.10
2023-05-10T15:38:15.592Z,5.60
2023-05-10T15:39:15.586Z,5.80
2023-05-10T15:40:15.578Z,5.30
2023-05-10T15:41:15.578Z,5.60
2023-05-10T15:42:15.552Z,5.40
2023-05-10T15:43:15.545Z,4.70
2023-05-10T15:44:15.537Z,4.20
2023-05-10T15:45:15.746Z,4.00
2023-05-10T15:46:15.545Z,4.10
2023-05-10T15:47:15.506Z,4.10
2023-05-10T15:48:15.538Z,4.40
2023-05-10T15:49:15.486Z,4.00
2023-05-10T15:50:15.471Z,3.50
2023-05-10T15:51:15.495Z,3.50
2023-05-10T15:52:15.438Z,3.50
2023-05-10T15:53:15.433Z,3.90
2023-05-10T15:54:15.411Z,3.70
2023-05-10T15:55:15.606Z,3.50
2023-05-10T15:56:15.449Z,3.30
2023-05-10T15:57:15.397Z,3.50
2023-05-10T15:58:15.376Z,3.50
2023-05-10T15:59:15.366Z,3.20
2023-05-10T16:00:15.400Z,2.90
2023-05-10T16:01:15.393Z,2.90
2023-05-10T16:02:15.394Z,3.30
2023-05-10T16:03:15.386Z,2.90
2023-05-10T16:04:15.311Z,3.40
2023-05-10T16:05:15.476Z,3.10
2023-05-10T16:06:15.311Z,3.10
2023-05-10T16:07:15.288Z,3.30
2023-05-10T16:08:15.266Z,3.20
2023-05-10T16:09:15.254Z,3.30
2023-05-10T16:10:15.249Z,3.30
2023-05-10T16:11:15.267Z,2.70
2023-05-10T16:12:15.221Z,3.50
2023-05-10T16:13:15.235Z,3.30
2023-05-10T16:14:15.211Z,2.60
2023-05-10T16:15:15.389Z,2.40
2023-05-10T16:16:15.263Z,2.80
2023-05-10T16:17:15.305Z,2.50
2023-05-10T16:18:15.180Z,2.60
2023-05-10T16:19:15.212Z,2.60
2023-05-10T16:20:15.158Z,2.60
2023-05-10T16:21:15.167Z,2.30
2023-05-10T16:22:15.111Z,2.30
2023-05-10T16:23:15.117Z,2.20
2023-05-10T16:24:15.102Z,2.80
2023-05-10T16:25:15.416Z,2.00
2023-05-10T16:26:15.090Z,2.20
2023-05-10T16:27:15.062Z,2.30
2023-05-10T16:28:15.049Z,2.50
2023-05-10T16:29:15.046Z,2.30
2023-05-10T16:30:15.057Z,2.20
2023-05-10T16:31:15.075Z,2.30
2023-05-10T16:32:15.016Z,2.60
2023-05-10T16:33:14.996Z,2.20
2023-05-10T16:34:14.983Z,2.30
2023-05-10T16:35:15.019Z,2.00
2023-05-10T16:36:14.997Z,2.30
2023-05-10T16:37:14.955Z,2.70
2023-05-10T16:38:14.942Z,1.90
2023-05-10T16:39:14.930Z,2.50
2023-05-10T16:40:14.923Z,2.20
2023-05-10T16:41:14.928Z,2.10
2023-05-10T16:42:14.895Z,2.60
2023-05-10T16:43:14.895Z,2.20
2023-05-10T16:44:14.876Z,2.60
2023-05-10T16:45:14.986Z,2.50
2023-05-10T16:46:14.888Z,2.40
2023-05-10T16:47:14.851Z,2.60
2023-05-10T16:48:14.832Z,2.90
2023-05-10T16:49:14.828Z,2.90
2023-05-10T16:50:14.807Z,2.70
2023-05-10T16:51:14.825Z,3.10
2023-05-10T16:52:14.781Z,2.80
2023-05-10T16:53:14.775Z,3.10
2023-05-10T16:54:14.780Z,3.60
2023-05-10T16:55:14.909Z,3.40
2023-05-10T16:56:14.769Z,3.70
2023-05-10T16:57:14.733Z,3.40
2023-05-10T16:58:14.731Z,3.70
2023-05-10T16:59:14.713Z,3.50
2023-05-10T17:00:14.704Z,3.80
2023-05-10T17:01:14.739Z,3.60
2023-05-10T17:02:14.736Z,3.80
2023-05-10T17:03:14.755Z,3.90
2023-05-10T17:04:14.764Z,3.50
2023-05-10T17:05:14.749Z,3.90
2023-05-10T17:06:14.660Z,3.30
2023-05-10T17:07:14.632Z,3.60
2023-05-10T17:08:14.640Z,4.10
2023-05-10T17:09:14.617Z,3.50
2023-05-10T17:10:14.606Z,3.50
2023-05-10T17:11:14.614Z,3.80
2023-05-10T17:12:14.631Z,3.60
2023-05-10T17:13:14.587Z,3.20
2023-05-10T17:14:14.538Z,3.60
2023-05-10T17:15:14.597Z,3.50
2023-05-10T17:16:14.692Z,4.10
2023-05-10T17:17:14.509Z,3.60
2023-05-10T17:18:14.494Z,4.00
2023-05-10T17:19:14.486Z,3.80
2023-05-10T17:20:14.477Z,3.80
2023-05-10T17:21:14.509Z,3.40
2023-05-10T17:22:14.452Z,3.60
2023-05-10T17:23:14.451Z,3.90
2023-05-10T17:24:14.430Z,4.10
2023-05-10T17:25:14.437Z,4.10
2023-05-10T17:26:14.429Z,4.20
2023-05-10T17:27:14.397Z,4.40
2023-05-10T17:28:14.380Z,4.50
2023-05-10T17:29:14.372Z,3.70
2023-05-10T17:30:14.370Z,3.60
2023-05-10T17:31:14.387Z,3.50
2023-05-10T17:32:14.346Z,4.00
2023-05-10T17:33:14.334Z,3.80
2023-05-10T17:34:14.318Z,4.60
2023-05-10T17:35:14.557Z,4.20
2023-05-10T17:36:14.317Z,4.00
2023-05-10T17:37:14.283Z,3.80
2023-05-10T17:38:14.269Z,3.40
2023-05-10T17:39:14.264Z,3.60
2023-05-10T17:40:14.268Z,3.70
2023-05-10T17:41:14.252Z,3.80
2023-05-10T17:42:14.229Z,3.60
2023-05-10T17:43:14.216Z,3.70
2023-05-10T17:44:14.215Z,3.80
2023-05-10T17:45:14.278Z,4.00
2023-05-10T17:46:14.276Z,3.30
2023-05-10T17:47:14.176Z,3.50
2023-05-10T17:48:14.164Z,3.40
2023-05-10T17:49:14.165Z,3.80
2023-05-10T17:50:14.151Z,3.40
2023-05-10T17:51:14.161Z,3.10
2023-05-10T17:52:14.138Z,3.50
2023-05-10T17:53:14.111Z,3.60
2023-05-10T17:54:14.093Z,3.40
2023-05-10T17:55:14.114Z,3.30
2023-05-10T17:56:14.165Z,3.00
2023-05-10T17:57:14.067Z,3.20
2023-05-10T17:58:14.041Z,3.30
2023-05-10T17:59:14.046Z,3.50
2023-05-10T18:00:14.031Z,2.90
2023-05-10T18:01:14.084Z,2.90
2023-05-10T18:02:14.044Z,3.00
2023-05-10T18:03:13.990Z,2.90
2023-05-10T18:04:13.984Z,2.60
2023-05-10T18:05:14.115Z,2.30
2023-05-10T18:06:14.024Z,2.80
2023-05-10T18:07:13.963Z,2.60
2023-05-10T18:08:13.935Z,2.60
2023-05-10T18:09:13.925Z,2.30
2023-05-10T18:10:13.911Z,2.60
2023-05-10T18:11:13.899Z,2.30
2023-05-10T18:12:13.976Z,2.10
2023-05-10T18:13:13.886Z,2.20
2023-05-10T18:14:13.867Z,2.10
2023-05-10T18:15:13.856Z,2.00
2023-05-10T18:16:13.919Z,1.80
2023-05-10T18:17:13.931Z,2.00
2023-05-10T18:18:13.876Z,1.80
2023-05-10T18:19:13.822Z,1.80
2023-05-10T18:20:20.347Z,2.00
2023-05-10T18:21:13.817Z,1.80
2023-05-10T18:22:13.804Z,1.70
2023-05-10T18:23:13.767Z,1.70
2023-05-10T18:24:13.761Z,1.50
2023-05-10T18:25:13.763Z,1.70
2023-05-10T18:26:13.729Z,1.70
2023-05-10T18:27:13.768Z,2.00
2023-05-10T18:28:13.738Z,1.50
2023-05-10T18:29:13.714Z,1.60
2023-05-10T18:30:13.701Z,1.60
2023-05-10T18:31:13.716Z,1.60
2023-05-10T18:32:13.677Z,1.20
2023-05-10T18:33:13.764Z,1.30
2023-05-10T18:34:13.642Z,1.40
2023-05-10T18:35:13.646Z,1.50
2023-05-10T18:36:16.523Z,1.10
2023-05-10T18:37:14.706Z,1.00
2023-05-10T18:38:13.626Z,0.90
2023-05-10T18:39:13.603Z,1.10
2023-05-10T18:40:13.582Z,0.90
2023-05-10T18:41:13.575Z,0.90
2023-05-10T18:42:13.605Z,1.10
2023-05-10T18:43:13.576Z,1.20
2023-05-10T18:44:13.545Z,1.10
2023-05-10T18:45:13.582Z,1.10
2023-05-10T18:46:13.541Z,1.20
2023-05-10T18:47:13.524Z,1.20
2023-05-10T18:48:13.518Z,1.20
2023-05-10T18:49:13.491Z,1.20
2023-05-10T18:50:13.499Z,1.30
2023-05-10T18:51:13.483Z,1.30
2023-05-10T18:52:13.471Z,1.70